Time;durP1;ratioP1;P1;durP2;ratioP2;P2;SDS_P1;SDS_P2;PMS_P1;PMS_P2;Temp;Humidity;BMP_temperature;BMP_pressure;BME280_temperature;BME280_humidity;BME280_pressure;Samples;Min_cycle;Max_cycle;Signal;HPM_P1;HPM_P2
2022/09/20 00:00:12;;;;;;;3.30;2.22;;;;;;;11.81;100.00;102311.09;10583679;28;20028;-70
2022/09/20 00:05:12;;;;;;;7.88;2.20;;;;;;;11.70;100.00;102303.28;10581838;28;20118;-71
2022/09/20 00:10:13;;;;;;;22.63;2.30;;;;;;;11.50;100.00;102297.34;10581758;28;20114;-69
2022/09/20 00:15:13;;;;;;;6.80;1.90;;;;;;;11.34;100.00;102295.47;10564022;28;20027;-69
2022/09/20 00:20:14;;;;;;;1.70;1.60;;;;;;;11.36;100.00;102305.16;10581696;28;20536;-69
2022/09/20 00:25:18;;;;;;;7.05;2.38;;;;;;;11.55;100.00;102313.94;10581916;28;20031;-68
2022/09/20 00:30:18;;;;;;;8.00;2.63;;;;;;;11.64;100.00;102312.94;10582043;28;20374;-68
2022/09/20 00:35:19;;;;;;;3.30;1.55;;;;;;;11.66;100.00;102312.78;10580907;28;20059;-68
2022/09/20 00:40:20;;;;;;;2.13;1.92;;;;;;;11.58;100.00;102313.59;10581639;28;20032;-69
2022/09/20 00:45:27;;;;;;;7.53;2.42;;;;;;;11.44;100.00;102312.44;10583144;28;20027;-69
2022/09/20 00:50:32;;;;;;;11.75;2.45;;;;;;;11.26;100.00;102314.44;10581366;28;20035;-70
2022/09/20 00:55:33;;;;;;;5.25;1.60;;;;;;;11.13;100.00;102313.06;10581392;28;20092;-69
2022/09/20 01:00:33;;;;;;;6.70;2.05;;;;;;;11.07;100.00;102307.47;10563166;28;20035;-70
2022/09/20 01:05:34;;;;;;;11.80;2.25;;;;;;;11.01;100.00;102308.13;10566247;28;20026;-69
2022/09/20 01:10:34;;;;;;;4.85;1.20;;;;;;;10.91;100.00;102301.00;10571181;28;20367;-70
2022/09/20 01:15:35;;;;;;;2.38;2.17;;;;;;;10.79;100.00;102302.31;10570307;28;20039;-70
2022/09/20 01:20:38;;;;;;;3.03;1.42;;;;;;;10.64;100.00;102295.84;10570682;28;20428;-69
2022/09/20 01:25:47;;;;;;;4.25;2.67;;;;;;;10.56;100.00;102302.06;10571765;28;20023;-71
2022/09/20 01:30:51;;;;;;;4.82;2.70;;;;;;;10.51;100.00;102306.28;10587797;28;20035;-71
2022/09/20 01:35:52;;;;;;;4.38;1.52;;;;;;;10.50;100.00;102312.69;10587951;28;20039;-70
2022/09/20 01:41:11;;;;;;;6.70;2.40;;;;;;;10.42;100.00;102299.97;10552858;28;20065;-70
2022/09/20 01:46:31;;;;;;;4.25;2.08;;;;;;;10.36;100.00;102304.16;10588399;28;20054;-72
2022/09/20 01:51:52;;;;;;;4.35;2.03;;;;;;;10.32;100.00;102307.38;10587668;28;20055;-71
2022/09/20 01:56:58;;;;;;;1.83;1.73;;;;;;;10.27;100.00;102305.13;10569416;28;20039;-71
2022/09/20 02:02:05;;;;;;;3.05;2.22;;;;;;;10.20;100.00;102298.63;10588479;28;20035;-69
2022/09/20 02:07:24;;;;;;;;;;;;;;;10.19;100.00;102296.94;10569204;28;20082;-69
2022/09/20 02:12:50;;;;;;;9.18;2.28;;;;;;;10.25;100.00;102293.59;10587373;28;19911;-70
2022/09/20 02:18:18;;;;;;;6.72;2.45;;;;;;;10.33;100.00;102287.41;10570634;28;20085;-71
2022/09/20 02:24:06;;;;;;;2.78;2.03;;;;;;;10.36;100.00;102300.63;10541699;28;20471;-71
2022/09/20 02:29:25;;;;;;;2.15;1.77;;;;;;;10.34;100.00;102291.78;10581318;28;20043;-70
2022/09/20 02:34:35;;;;;;;4.80;2.42;;;;;;;10.30;100.00;102295.84;10586017;28;20093;-70
2022/09/20 02:39:54;;;;;;;6.57;2.90;;;;;;;10.30;100.00;102293.97;10587990;28;20062;-70
2022/09/20 02:45:18;;;;;;;1.95;1.83;;;;;;;10.28;100.00;102296.03;10570033;28;20032;-70
2022/09/20 02:50:48;;;;;;;2.85;2.22;;;;;;;10.24;100.00;102283.75;10585935;28;20028;-70
2022/09/20 02:56:14;;;;;;;2.05;1.85;;;;;;;10.24;100.00;102297.28;10552876;28;20084;-71
2022/09/20 03:01:20;;;;;;;9.70;2.25;;;;;;;10.17;100.00;102290.84;10569675;28;20023;-71
2022/09/20 03:06:30;;;;;;;3.78;2.55;;;;;;;10.14;100.00;102280.31;10567592;28;20055;-71
2022/09/20 03:11:35;;;;;;;6.25;3.13;;;;;;;10.27;100.00;102285.34;10567230;28;20032;-70
2022/09/20 03:16:44;;;;;;;3.83;2.08;;;;;;;10.47;100.00;102286.81;10566558;28;20390;-71
2022/09/20 03:21:56;;;;;;;5.55;2.58;;;;;;;10.62;100.00;102281.59;10584058;28;20466;-69
2022/09/20 03:27:04;;;;;;;14.05;3.67;;;;;;;10.76;100.00;102297.22;10566468;28;20088;-70
2022/09/20 03:32:04;;;;;;;12.15;2.88;;;;;;;10.83;100.00;102289.28;10549931;28;20118;-69
2022/09/20 03:37:11;;;;;;;5.05;2.85;;;;;;;10.92;100.00;102293.72;10564657;28;20602;-71
2022/09/20 03:42:16;;;;;;;;;;;;;;;10.98;100.00;102300.34;10583715;28;20036;-69
2022/09/20 03:47:33;;;;;;;8.82;3.35;;;;;;;11.01;100.00;102303.56;10582962;28;20359;-70
2022/09/20 03:52:47;;;;;;;3.92;3.05;;;;;;;11.07;100.00;102304.75;10566508;28;20052;-70
2022/09/20 03:58:20;;;;;;;3.92;2.47;;;;;;;11.15;100.00;102312.91;10582723;28;20042;-71
2022/09/20 04:03:35;;;;;;;6.90;2.10;;;;;;;11.19;100.00;102311.56;10567616;28;20028;-70
2022/09/20 04:08:44;;;;;;;9.10;2.13;;;;;;;11.25;100.00;102320.88;10563929;28;20039;-69
2022/09/20 04:13:54;;;;;;;4.38;2.88;;;;;;;11.24;100.00;102327.34;10565268;28;20031;-68
2022/09/20 04:19:00;;;;;;;9.45;1.85;;;;;;;11.29;100.00;102316.81;10563211;28;20387;-69
2022/09/20 04:24:17;;;;;;;3.97;1.87;;;;;;;11.34;100.00;102306.31;10563725;28;20027;-68
2022/09/20 04:29:32;;;;;;;1.80;1.70;;;;;;;11.30;100.00;102294.13;10565338;28;20016;-69
2022/09/20 04:40:31;;;;;;;6.55;2.72;;;;;;;11.35;100.00;102317.00;10554361;28;20051;-69
2022/09/20 04:45:37;;;;;;;13.82;2.92;;;;;;;11.31;100.00;102312.94;10544436;28;20089;-68
2022/09/20 04:50:57;;;;;;;5.83;2.30;;;;;;;11.34;100.00;102320.72;10573000;28;20111;-71
2022/09/20 04:56:02;;;;;;;2.83;1.67;;;;;;;11.35;100.00;102325.13;10590856;28;20050;-71
2022/09/20 05:01:18;;;;;;;5.30;2.05;;;;;;;11.39;100.00;102325.63;10588977;28;20031;-70
2022/09/20 05:06:26;;;;;;;7.30;1.67;;;;;;;11.44;100.00;102330.56;10590467;28;20031;-69
2022/09/20 05:11:29;;;;;;;1.30;1.25;;;;;;;11.50;100.00;102333.47;10570164;28;20124;-71
2022/09/20 05:16:49;;;;;;;5.57;1.40;;;;;;;11.54;100.00;102331.25;10570477;28;20031;-71
2022/09/20 05:21:57;;;;;;;4.85;1.80;;;;;;;11.58;100.00;102313.59;10588699;28;20039;-70
2022/09/20 05:27:28;;;;;;;5.30;2.42;;;;;;;11.59;100.00;102304.47;10589365;28;20031;-69
2022/09/20 05:32:30;;;;;;;8.52;2.30;;;;;;;11.63;100.00;102316.69;10557070;28;20020;-70
2022/09/20 05:37:47;;;;;;;7.35;2.17;;;;;;;11.64;100.00;102319.22;10570287;28;20044;-70
2022/09/20 05:43:10;;;;;;;7.25;2.92;;;;;;;11.66;100.00;102321.75;10569951;28;20032;-70
2022/09/20 05:48:17;;;;;;;3.88;1.73;;;;;;;11.63;100.00;102330.25;10587371;28;20030;-69
2022/09/20 05:53:36;;;;;;;4.32;1.50;;;;;;;11.56;100.00;102321.09;10552220;28;20027;-70
2022/09/20 05:58:59;;;;;;;5.03;2.95;;;;;;;11.61;100.00;102326.84;10568348;28;20047;-71
2022/09/20 06:04:21;;;;;;;2.30;2.10;;;;;;;11.69;100.00;102335.00;10537834;28;20035;-70
2022/09/20 06:09:26;;;;;;;5.95;2.90;;;;;;;11.81;100.00;102346.38;10585868;28;20106;-70
2022/09/20 06:14:37;;;;;;;12.50;2.78;;;;;;;11.92;100.00;102342.47;10587403;28;20114;-71
2022/09/20 06:20:19;;;;;;;4.68;2.95;;;;;;;12.10;100.00;102343.97;10567972;28;20032;-69
2022/09/20 06:25:41;;;;;;;8.82;2.33;;;;;;;12.27;100.00;102346.66;10576560;28;20040;-70
2022/09/20 06:30:54;;;;;;;4.70;2.95;;;;;;;12.39;100.00;102348.00;10551862;28;20042;-69
2022/09/20 06:41:41;;;;;;;3.83;2.53;;;;;;;12.90;100.00;102358.50;10573456;28;20031;-70
2022/09/20 06:46:41;;;;;;;20.10;3.40;;;;;;;14.52;100.00;102358.28;10551621;28;20114;-71
2022/09/20 06:51:42;;;;;;;5.78;3.92;;;;;;;14.67;100.00;102362.88;10566711;28;20031;-71
2022/09/20 06:56:42;;;;;;;8.30;2.92;;;;;;;14.83;100.00;102359.94;10584993;28;20364;-70
2022/09/20 07:01:43;;;;;;;8.93;3.05;;;;;;;15.33;100.00;102363.69;10592406;28;20027;-71
2022/09/20 07:06:43;;;;;;;5.72;2.53;;;;;;;15.19;100.00;102365.44;10582398;28;20062;-70
2022/09/20 07:11:45;;;;;;;8.23;2.38;;;;;;;16.64;100.00;102365.00;10584495;28;20028;-70
2022/09/20 07:16:45;;;;;;;3.53;2.38;;;;;;;18.02;100.00;102356.56;10584270;28;20387;-70
2022/09/20 07:21:47;;;;;;;6.18;2.60;;;;;;;18.17;100.00;102356.34;10583866;28;20043;-70
2022/09/20 07:27:01;;;;;;;2.50;2.00;;;;;;;18.17;100.00;102362.66;10583497;28;20032;-71
2022/09/20 07:32:01;;;;;;;3.58;2.65;;;;;;;18.79;100.00;102365.91;10582292;28;20403;-71
2022/09/20 07:37:02;;;;;;;3.45;2.17;;;;;;;18.23;100.00;102364.56;10564749;28;20139;-71
2022/09/20 07:42:05;;;;;;;3.95;2.40;;;;;;;18.66;100.00;102366.78;10583737;28;20356;-70
2022/09/20 07:47:05;;;;;;;3.50;1.73;;;;;;;19.06;100.00;102377.66;10565982;28;20035;-70
2022/09/20 07:52:06;;;;;;;2.28;2.08;;;;;;;20.05;100.00;102387.19;10565317;28;20478;-72
2022/09/20 07:57:07;;;;;;;4.97;3.30;;;;;;;20.56;100.00;102393.50;10582010;28;20028;-71
2022/09/20 08:02:12;;;;;;;3.03;1.75;;;;;;;20.29;100.00;102392.88;10564017;28;20032;-71
2022/09/20 08:07:13;;;;;;;6.47;2.17;;;;;;;20.60;100.00;102394.72;10564191;28;20043;-71
2022/09/20 08:12:13;;;;;;;0.95;0.95;;;;;;;20.63;100.00;102405.28;10582456;28;20031;-70
2022/09/20 08:17:14;;;;;;;1.77;1.13;;;;;;;21.16;100.00;102404.66;10563140;28;20067;-70
2022/09/20 08:22:14;;;;;;;5.00;1.08;;;;;;;21.76;100.00;102398.31;10563778;28;20035;-72
2022/09/20 08:27:14;;;;;;;6.32;1.50;;;;;;;22.05;100.00;102400.19;10581834;28;20032;-71
2022/09/20 08:32:15;;;;;;;11.32;1.75;;;;;;;22.26;100.00;102414.50;10580970;28;20063;-71
2022/09/20 08:37:15;;;;;;;1.85;1.73;;;;;;;22.41;100.00;102406.59;10582508;28;20184;-71
2022/09/20 08:42:32;;;;;;;2.45;1.80;;;;;;;22.75;100.00;102417.84;10581228;28;20063;-71
2022/09/20 08:47:34;;;;;;;3.65;1.00;;;;;;;22.97;100.00;102421.69;10545828;28;20063;-71
2022/09/20 08:52:36;;;;;;;1.17;1.10;;;;;;;22.53;100.00;102417.63;10562947;28;20123;-71
2022/09/20 08:57:37;;;;;;;2.10;1.75;;;;;;;23.19;100.00;102421.00;10563129;28;20023;-70
2022/09/20 09:02:37;;;;;;;0.88;0.85;;;;;;;22.03;100.00;102416.13;10581373;28;20047;-72
2022/09/20 09:07:38;;;;;;;0.77;0.77;;;;;;;20.36;100.00;102432.19;10545609;28;20035;-71
2022/09/20 09:12:40;;;;;;;6.07;1.77;;;;;;;19.88;100.00;102430.06;10579712;28;20028;-70
2022/09/20 09:17:41;;;;;;;9.23;1.40;;;;;;;19.57;100.00;102439.09;10546350;28;20024;-71
2022/09/20 09:22:43;;;;;;;5.55;1.85;;;;;;;19.58;100.00;102441.59;10580591;28;20453;-71
2022/09/20 09:27:50;;;;;;;1.27;1.27;;;;;;;20.90;100.00;102438.88;10585298;28;20459;-71
2022/09/20 09:32:51;;;;;;;4.45;2.17;;;;;;;21.60;100.00;102441.16;10588930;28;20035;-70
2022/09/20 09:37:59;;;;;;;10.52;1.55;;;;;;;22.18;100.00;102446.06;10569802;28;20388;-71
2022/09/20 09:43:00;;;;;;;7.55;1.35;;;;;;;22.32;100.00;102434.78;10587024;28;20052;-71
2022/09/20 09:48:01;;;;;;;1.20;1.17;;;;;;;23.43;100.00;102441.97;10569141;28;20463;-71
2022/09/20 09:53:09;;;;;;;4.55;1.38;;;;;;;24.58;100.00;102441.78;10585930;28;20024;-70
2022/09/20 09:58:21;;;;;;;1.98;1.52;;;;;;;22.52;100.00;102438.84;10570293;28;20099;-70
2022/09/20 10:03:43;;;;;;;7.70;1.30;;;;;;;20.19;100.00;102451.16;10553488;28;20455;-70
2022/09/20 10:08:59;;;;;;;1.20;1.20;;;;;;;19.82;100.00;102452.94;10536693;28;20371;-70
2022/09/20 10:14:41;;;;;;;2.17;2.08;;;;;;;21.72;100.00;102438.47;10568177;28;20028;-71
2022/09/20 10:20:14;;;;;;;1.15;1.15;;;;;;;23.51;100.00;102432.41;10557193;28;20040;-71
2022/09/20 10:25:25;;;;;;;5.85;1.40;;;;;;;22.12;100.00;102435.09;10569389;28;20028;-70
2022/09/20 10:30:31;;;;;;;5.68;1.42;;;;;;;22.02;100.00;102446.72;10566874;28;20055;-70
2022/09/20 10:35:35;;;;;;;1.88;1.23;;;;;;;22.22;100.00;102432.63;10567605;28;20059;-71
2022/09/20 10:46:52;;;;;;;9.82;2.00;;;;;;;19.59;100.00;102447.94;10570422;28;20471;-71
2022/09/20 10:51:52;;;;;;;7.65;2.00;;;;;;;21.21;100.00;102448.03;10549660;28;20057;-71
2022/09/20 10:57:28;;;;;;;10.52;1.88;;;;;;;21.35;100.00;102442.16;10584842;28;20115;-71
2022/09/20 11:02:55;;;;;;;1.58;1.48;;;;;;;19.96;100.00;102455.34;10538484;28;20523;-71
2022/09/20 11:08:14;;;;;;;4.00;2.03;;;;;;;21.49;100.00;102455.75;10584005;28;20062;-72
2022/09/20 11:13:24;;;;;;;5.82;0.85;;;;;;;21.12;100.00;102456.63;10568323;28;20076;-69
2022/09/20 11:18:31;;;;;;;1.60;1.10;;;;;;;19.80;100.00;102458.63;10549252;28;20117;-70
2022/09/20 11:23:54;;;;;;;2.83;1.63;;;;;;;18.85;100.00;102458.38;10566830;28;20042;-71
2022/09/20 11:29:00;;;;;;;1.80;1.70;;;;;;;20.42;100.00;102461.53;10548484;28;20028;-71
2022/09/20 11:34:30;;;;;;;5.82;1.75;;;;;;;22.33;100.00;102456.63;10583049;28;20030;-71
2022/09/20 11:39:39;;;;;;;1.42;1.38;;;;;;;22.80;100.00;102450.25;10566447;28;20546;-71
2022/09/20 11:44:40;;;;;;;1.25;1.25;;;;;;;23.50;100.00;102452.03;10566146;28;20043;-70
2022/09/20 11:50:01;;;;;;;1.65;1.55;;;;;;;24.32;100.00;102455.22;10564735;28;20032;-70
2022/09/20 11:55:41;;;;;;;11.05;2.00;;;;;;;24.36;100.00;102456.38;10564473;28;20351;-70
2022/09/20 12:00:43;;;;;;;2.08;1.38;;;;;;;25.01;100.00;102457.63;10536234;28;20044;-70
2022/09/20 12:05:43;;;;;;;5.80;1.45;;;;;;;25.31;100.00;102453.59;10580894;28;20115;-70
2022/09/20 12:10:44;;;;;;;4.03;1.98;;;;;;;23.95;100.00;102465.91;10547751;28;20115;-71
2022/09/20 12:15:45;;;;;;;0.80;0.80;;;;;;;23.74;100.00;102478.56;10564341;28;20487;-70
2022/09/20 12:20:45;;;;;;;1.77;1.25;;;;;;;23.07;100.00;102470.81;10563768;28;20122;-71
2022/09/20 12:26:08;;;;;;;1.50;1.05;;;;;;;23.55;100.00;102472.34;10563531;28;20031;-69
2022/09/20 12:31:20;;;;;;;13.18;1.55;;;;;;;23.49;100.00;102472.50;10563799;28;20047;-70
2022/09/20 12:36:20;;;;;;;15.60;2.10;;;;;;;23.55;100.00;102468.75;10581972;28;20078;-70
2022/09/20 12:41:21;;;;;;;1.08;1.08;;;;;;;21.42;100.00;102475.16;10579989;28;20173;-70
2022/09/20 12:46:51;;;;;;;6.85;1.35;;;;;;;19.92;100.00;102476.13;10546084;28;20126;-69
2022/09/20 12:57:22;;;;;;;5.07;0.93;;;;;;;18.64;100.00;102470.44;10565314;28;20486;-70
2022/09/20 13:02:51;;;;;;;1.65;1.27;;;;;;;19.86;100.00;102466.00;10551758;28;20450;-69
2022/09/20 13:07:55;;;;;;;1.75;1.40;;;;;;;20.92;100.00;102480.78;10590098;28;20039;-70
2022/09/20 13:13:02;;;;;;;2.58;1.65;;;;;;;21.68;100.00;102464.84;10554619;28;20031;-69
2022/09/20 13:18:03;;;;;;;1.27;1.15;;;;;;;21.77;100.00;102460.69;10570621;28;20039;-71
2022/09/20 13:23:04;;;;;;;1.35;1.05;;;;;;;21.46;100.00;102459.81;10570345;28;20034;-70
2022/09/20 13:28:33;;;;;;;2.10;1.50;;;;;;;21.75;100.00;102468.31;10588701;28;20428;-71
2022/09/20 13:33:34;;;;;;;1.00;0.98;;;;;;;22.34;100.00;102472.13;10553277;28;20483;-70
2022/09/20 13:38:35;;;;;;;4.35;1.20;;;;;;;21.90;100.00;102466.00;10588934;28;20075;-71
2022/09/20 13:43:42;;;;;;;2.72;2.10;;;;;;;21.61;100.00;102466.84;10553797;28;20027;-70
2022/09/20 13:48:46;;;;;;;1.63;1.00;;;;;;;20.87;100.00;102472.38;10587693;28;20027;-70
2022/09/20 13:53:47;;;;;;;3.95;1.08;;;;;;;20.08;100.00;102471.16;10586364;28;20027;-69
2022/09/20 13:58:48;;;;;;;0.50;0.50;;;;;;;20.03;100.00;102473.72;10534546;28;20035;-70
2022/09/20 14:03:49;;;;;;;7.13;0.90;;;;;;;19.40;100.00;102474.44;10570988;28;20344;-70
2022/09/20 14:08:49;;;;;;;2.58;1.00;;;;;;;19.70;100.00;102472.88;10568597;28;20126;-71
2022/09/20 14:13:51;;;;;;;4.70;1.73;;;;;;;20.47;100.00;102461.72;10549766;28;20125;-71
2022/09/20 14:18:52;;;;;;;12.32;1.63;;;;;;;20.63;100.00;102463.91;10569244;28;20032;-70
2022/09/20 14:24:16;;;;;;;1.27;1.00;;;;;;;20.69;100.00;102469.59;10551957;28;20035;-70
2022/09/20 14:29:29;;;;;;;1.38;1.10;;;;;;;20.94;100.00;102458.53;10578893;28;20130;-70
2022/09/20 14:34:29;;;;;;;1.20;1.10;;;;;;;20.86;100.00;102459.66;10587369;28;20047;-69
2022/09/20 14:39:30;;;;;;;1.20;1.10;;;;;;;19.93;100.00;102449.47;10550325;28;20475;-70
2022/09/20 14:44:31;;;;;;;1.73;0.88;;;;;;;19.03;100.00;102443.97;10551276;28;20067;-69
2022/09/20 14:49:32;;;;;;;1.42;1.33;;;;;;;18.43;100.00;102445.97;10567212;28;20067;-69
2022/09/20 14:54:33;;;;;;;1.17;1.00;;;;;;;18.29;100.00;102448.72;10566945;28;20051;-70
2022/09/20 14:59:40;;;;;;;1.20;1.10;;;;;;;17.72;100.00;102446.53;10567021;28;20106;-69
2022/09/20 15:04:42;;;;;;;1.75;1.65;;;;;;;17.33;100.00;102451.69;10549237;28;20025;-71
2022/09/20 15:09:42;;;;;;;2.08;1.25;;;;;;;17.09;100.00;102452.19;10584444;28;20087;-69
2022/09/20 15:14:43;;;;;;;1.27;1.17;;;;;;;16.82;100.00;102459.41;10565737;28;20517;-69
2022/09/20 15:19:44;;;;;;;2.38;1.00;;;;;;;16.56;100.00;102457.28;10566133;28;20199;-70
2022/09/20 15:24:44;;;;;;;2.28;0.93;;;;;;;16.34;100.00;102454.63;10583402;28;20035;-69
2022/09/20 15:29:45;;;;;;;1.45;1.40;;;;;;;16.19;100.00;102462.06;10583184;28;20032;-70
2022/09/20 15:34:45;;;;;;;1.38;1.30;;;;;;;16.09;100.00;102453.34;10582426;28;20035;-70
2022/09/20 15:39:46;;;;;;;1.13;0.77;;;;;;;15.98;100.00;102446.50;10584951;28;20497;-70
2022/09/20 15:44:52;;;;;;;3.70;1.05;;;;;;;15.85;100.00;102449.94;10564936;28;20188;-70
2022/09/20 15:49:53;;;;;;;1.30;1.20;;;;;;;15.76;100.00;102451.13;10583836;28;20043;-69
2022/09/20 15:54:58;;;;;;;7.65;1.70;;;;;;;15.77;100.00;102450.94;10548082;28;20059;-70
2022/09/20 15:59:59;;;;;;;1.80;1.33;;;;;;;15.72;100.00;102445.19;10583401;28;20035;-70
2022/09/20 16:05:00;;;;;;;4.53;1.52;;;;;;;15.67;100.00;102449.56;10583430;28;20032;-70
2022/09/20 16:10:01;;;;;;;9.05;2.00;;;;;;;15.55;100.00;102450.03;10582777;28;20032;-69
2022/09/20 16:15:01;;;;;;;3.28;1.25;;;;;;;15.42;100.00;102451.78;10583646;28;20032;-71
2022/09/20 16:20:02;;;;;;;1.30;1.13;;;;;;;15.32;100.00;102465.72;10581966;28;20036;-71
2022/09/20 16:25:04;;;;;;;2.03;0.90;;;;;;;15.27;100.00;102468.16;10563955;28;20031;-70
2022/09/20 16:30:05;;;;;;;4.22;1.88;;;;;;;15.22;100.00;102476.94;10582647;28;20034;-69
2022/09/20 16:35:06;;;;;;;5.40;2.20;;;;;;;15.14;100.00;102468.84;10581160;28;20044;-69
2022/09/20 16:40:10;;;;;;;1.35;1.27;;;;;;;15.08;100.00;102475.06;10580671;28;20449;-69
2022/09/20 16:45:12;;;;;;;11.15;1.58;;;;;;;14.97;100.00;102481.84;10583062;28;20405;-69
2022/09/20 16:50:12;;;;;;;4.88;0.90;;;;;;;14.83;100.00;102486.22;10581918;28;20027;-70
2022/09/20 16:55:13;;;;;;;5.13;2.65;;;;;;;14.67;100.00;102491.03;10562705;28;20032;-70
2022/09/20 17:00:15;;;;;;;6.82;1.50;;;;;;;14.55;100.00;102493.34;10562448;28;20036;-71
2022/09/20 17:05:16;;;;;;;0.85;0.85;;;;;;;14.40;100.00;102493.28;10562336;28;20032;-70
2022/09/20 17:10:16;;;;;;;3.45;1.60;;;;;;;14.21;100.00;102494.63;10580878;28;20466;-69
2022/09/20 17:15:17;;;;;;;5.60;1.00;;;;;;;14.10;100.00;102503.22;10580114;28;20162;-71
2022/09/20 17:20:17;;;;;;;2.42;2.22;;;;;;;13.96;100.00;102508.44;10579542;28;20039;-70
2022/09/20 17:25:17;;;;;;;1.80;1.70;;;;;;;13.86;100.00;102507.81;10563614;28;20039;-70
2022/09/20 17:30:18;;;;;;;5.05;1.58;;;;;;;13.72;100.00;102511.34;10561803;28;20031;-70
2022/09/20 17:35:18;;;;;;;7.40;1.92;;;;;;;13.55;100.00;102516.00;10544996;28;20055;-71
2022/09/20 17:40:19;;;;;;;1.05;1.05;;;;;;;13.36;100.00;102519.97;10581059;28;20356;-69
2022/09/20 17:45:19;;;;;;;5.35;1.60;;;;;;;13.22;100.00;102527.00;10580528;28;20113;-69
2022/09/20 17:50:20;;;;;;;0.80;0.80;;;;;;;13.06;100.00;102526.19;10570350;28;20035;-70
2022/09/20 17:55:21;;;;;;;3.40;1.90;;;;;;;12.91;100.00;102526.06;10588438;28;20536;-70
2022/09/20 18:00:21;;;;;;;3.45;1.25;;;;;;;12.80;100.00;102533.56;10588021;28;20070;-70
2022/09/20 18:05:21;;;;;;;6.63;2.00;;;;;;;12.60;100.00;102532.19;10586604;28;20071;-69
2022/09/20 18:10:27;;;;;;;3.38;1.77;;;;;;;12.50;100.00;102542.41;10570499;28;20032;-69
2022/09/20 18:15:28;;;;;;;5.35;1.70;;;;;;;12.41;100.00;102547.00;10588092;28;20034;-70
2022/09/20 18:20:28;;;;;;;2.47;1.75;;;;;;;12.34;100.00;102543.25;10568454;28;20059;-70
2022/09/20 18:26:20;;;;;;;4.97;1.88;;;;;;;12.32;100.00;102559.72;10568476;28;20455;-69
2022/09/20 18:31:01;;;;;;;8.27;3.30;;;;;;;12.23;100.00;102558.03;10585712;28;20097;-69
2022/09/20 18:36:02;;;;;;;2.85;2.40;;;;;;;12.22;100.00;102555.44;10568627;28;20410;-70
2022/09/20 18:41:02;;;;;;;7.40;3.88;;;;;;;12.41;100.00;102549.72;10567833;28;20027;-71
2022/09/20 18:46:03;;;;;;;4.40;2.33;;;;;;;12.72;100.00;102562.59;10584451;28;20039;-71
2022/09/20 18:51:04;;;;;;;6.57;2.72;;;;;;;12.95;100.00;102566.31;10585411;28;20039;-71
2022/09/20 18:56:20;;;;;;;6.63;2.55;;;;;;;13.03;100.00;102560.88;10583753;28;20036;-71
2022/09/20 19:01:39;;;;;;;5.70;2.28;;;;;;;12.93;100.00;102576.53;10584368;28;20032;-71
2022/09/20 19:06:43;;;;;;;5.88;1.90;;;;;;;12.74;100.00;102576.88;10584296;28;20034;-71
2022/09/20 19:11:47;;;;;;;8.38;4.72;;;;;;;12.49;100.00;102567.88;10567795;28;20089;-72
2022/09/20 19:16:49;;;;;;;7.68;3.63;;;;;;;12.28;100.00;102576.50;10566497;28;20051;-72
2022/09/20 19:22:10;;;;;;;9.68;5.18;;;;;;;12.10;100.00;102579.38;10549139;28;20117;-72
2022/09/20 19:27:11;;;;;;;10.98;4.53;;;;;;;11.95;100.00;102581.03;10567691;28;20051;-71
2022/09/20 19:32:20;;;;;;;5.68;3.25;;;;;;;11.81;100.00;102587.94;10549696;28;20151;-70
2022/09/20 19:37:38;;;;;;;9.02;6.38;;;;;;;11.73;100.00;102599.59;10566384;28;20051;-72
2022/09/20 19:42:41;;;;;;;17.92;3.08;;;;;;;11.67;100.00;102604.81;10566803;28;20023;-71
2022/09/20 19:47:57;;;;;;;5.90;2.92;;;;;;;11.64;100.00;102606.84;10583203;28;20035;-71
2022/09/20 19:52:58;;;;;;;5.72;2.53;;;;;;;11.61;100.00;102603.59;10567433;28;20035;-70
2022/09/20 19:57:59;;;;;;;3.55;2.45;;;;;;;11.61;100.00;102614.44;10565016;28;20031;-70
2022/09/20 20:02:59;;;;;;;12.48;3.08;;;;;;;11.56;100.00;102614.13;10582262;28;20031;-70
2022/09/20 20:08:21;;;;;;;5.15;3.05;;;;;;;11.52;100.00;102619.00;10582324;28;20027;-70
2022/09/20 20:14:01;;;;;;;13.10;7.43;;;;;;;11.62;100.00;102627.03;10547154;28;20446;-69
2022/09/20 20:19:26;;;;;;;17.80;4.85;;;;;;;11.94;100.00;102629.06;10583109;28;20063;-71
2022/09/20 20:24:51;;;;;;;2.67;2.47;;;;;;;12.31;100.00;102635.94;10559967;28;20056;-69
2022/09/20 20:29:51;;;;;;;5.55;2.63;;;;;;;12.48;100.00;102637.69;10581895;28;20035;-70
2022/09/20 20:34:52;;;;;;;2.33;1.63;;;;;;;12.62;100.00;102640.75;10563697;28;20062;-70
2022/09/20 20:39:53;;;;;;;4.07;1.88;;;;;;;12.67;100.00;102641.13;10563781;28;20059;-70
2022/09/20 20:44:53;;;;;;;8.20;1.77;;;;;;;12.75;100.00;102646.53;10582555;28;20040;-71
2022/09/20 20:49:54;;;;;;;1.77;1.67;;;;;;;12.88;100.00;102648.75;10582093;28;20024;-70
2022/09/20 20:54:54;;;;;;;7.97;2.42;;;;;;;12.91;100.00;102653.84;10563249;28;20482;-70
2022/09/20 20:59:54;;;;;;;3.10;2.05;;;;;;;12.90;100.00;102646.72;10581606;28;20054;-70
2022/09/20 21:04:55;;;;;;;4.15;1.58;;;;;;;12.88;100.00;102651.47;10563597;28;20384;-69
2022/09/20 21:09:55;;;;;;;8.73;2.78;;;;;;;12.88;100.00;102644.16;10562543;28;20053;-70
2022/09/20 21:14:56;;;;;;;2.85;1.83;;;;;;;12.98;100.00;102644.81;10580912;28;20451;-69
2022/09/20 21:19:56;;;;;;;6.82;1.23;;;;;;;13.07;100.00;102648.41;10581248;28;20036;-70
2022/09/20 21:24:57;;;;;;;8.77;1.88;;;;;;;13.09;100.00;102646.38;10587411;28;20122;-69
2022/09/20 21:29:57;;;;;;;14.45;2.72;;;;;;;13.09;100.00;102651.81;10570785;28;20035;-69
2022/09/20 21:34:58;;;;;;;4.50;1.92;;;;;;;12.99;100.00;102662.88;10590172;28;20040;-69
2022/09/20 21:39:58;;;;;;;3.60;1.75;;;;;;;12.77;100.00;102663.53;10589507;28;20097;-70
2022/09/20 21:44:59;;;;;;;3.95;1.80;;;;;;;12.62;100.00;102670.66;10588415;28;20104;-71
2022/09/20 21:49:59;;;;;;;2.33;1.40;;;;;;;12.43;100.00;102660.94;10587540;28;20027;-70
2022/09/20 21:55:00;;;;;;;1.58;1.20;;;;;;;12.18;100.00;102665.44;10587971;28;20110;-70
2022/09/20 22:00:00;;;;;;;5.43;1.83;;;;;;;11.90;100.00;102668.41;10588459;28;20051;-70
2022/09/20 22:05:01;;;;;;;3.53;2.30;;;;;;;11.66;100.00;102674.53;10587681;28;20114;-70
2022/09/20 22:10:02;;;;;;;7.07;2.03;;;;;;;11.53;100.00;102674.13;10552439;28;20031;-71
2022/09/20 22:15:02;;;;;;;7.47;3.60;;;;;;;11.34;100.00;102667.06;10587224;28;20023;-68
2022/09/20 22:20:03;;;;;;;7.10;2.88;;;;;;;11.17;100.00;102668.81;10570444;28;20042;-70
2022/09/20 22:25:04;;;;;;;3.00;1.95;;;;;;;11.06;100.00;102671.75;10586749;28;20132;-70
2022/09/20 22:30:06;;;;;;;4.03;2.25;;;;;;;11.01;100.00;102671.34;10586902;28;20036;-71
2022/09/20 22:35:07;;;;;;;4.45;2.45;;;;;;;10.92;100.00;102675.88;10587240;28;20085;-69
2022/09/20 22:40:08;;;;;;;8.15;2.88;;;;;;;10.81;100.00;102682.38;10587605;28;20105;-70
2022/09/20 22:45:09;;;;;;;13.63;3.28;;;;;;;10.75;100.00;102676.72;10568140;28;20031;-70
2022/09/20 22:50:09;;;;;;;2.03;1.70;;;;;;;10.66;100.00;102681.25;10586652;28;20036;-70
2022/09/20 22:55:10;;;;;;;3.95;2.40;;;;;;;10.63;100.00;102678.84;10569428;28;20526;-71
2022/09/20 23:00:11;;;;;;;4.25;3.10;;;;;;;10.60;100.00;102682.69;10589848;28;20106;-70
2022/09/20 23:05:11;;;;;;;5.20;3.10;;;;;;;10.63;100.00;102689.69;10588561;28;20040;-71
2022/09/20 23:10:12;;;;;;;1.60;1.50;;;;;;;10.72;100.00;102691.47;10588884;28;20031;-71
2022/09/20 23:15:12;;;;;;;7.63;2.50;;;;;;;10.84;100.00;102684.78;10570059;28;20035;-71
2022/09/20 23:20:13;;;;;;;1.92;1.67;;;;;;;10.94;100.00;102684.69;10586821;28;20118;-70
2022/09/20 23:25:13;;;;;;;5.90;2.45;;;;;;;10.99;100.00;102682.38;10586755;28;20367;-70
2022/09/20 23:30:14;;;;;;;4.22;1.80;;;;;;;10.98;100.00;102682.53;10587028;28;20126;-71
2022/09/20 23:35:14;;;;;;;2.97;2.42;;;;;;;11.04;100.00;102690.03;10586450;28;20063;-70